Time;durP1;ratioP1;P1;durP2;ratioP2;P2;SDS_P1;SDS_P2;PMS_P1;PMS_P2;Temp;Humidity;BMP_temperature;BMP_pressure;BME280_temperature;BME280_humidity;BME280_pressure;Samples;Min_cycle;Max_cycle;Signal;HPM_P1;HPM_P2
2021/08/21 00:01:11;;;;;;;8.78;6.20;;;;;;;17.70;70.37;98926.06;1870550;76;22157;-62
2021/08/21 00:03:46;;;;;;;8.13;6.00;;;;;;;17.69;70.42;98927.81;1854674;76;27845;-63
2021/08/21 00:06:22;;;;;;;7.80;6.12;;;;;;;17.70;70.41;98932.13;1870546;76;22110;-64
2021/08/21 00:09:04;;;;;;;8.88;6.42;;;;;;;17.67;70.43;98930.03;1889965;76;22182;-60
2021/08/21 00:11:39;;;;;;;10.10;6.78;;;;;;;17.64;70.52;98937.93;1889918;76;22514;-66
2021/08/21 00:14:35;;;;;;;8.73;5.92;;;;;;;17.58;70.63;98933.23;1870686;76;22218;-63
2021/08/21 00:17:11;;;;;;;7.90;5.40;;;;;;;17.58;70.67;98933.69;1870467;76;22194;-59
2021/08/21 00:19:46;;;;;;;9.25;6.10;;;;;;;17.60;70.66;98932.34;1854594;76;38241;-62
2021/08/21 00:22:22;;;;;;;9.83;6.12;;;;;;;17.66;70.62;98934.86;1854556;76;27922;-59
2021/08/21 00:24:57;;;;;;;9.10;6.03;;;;;;;17.65;70.26;98948.77;1890007;76;22131;-65
2021/08/21 00:27:33;;;;;;;10.20;7.22;;;;;;;17.70;70.46;98941.27;1854699;76;27865;-63
2021/08/21 00:30:11;;;;;;;11.05;6.78;;;;;;;17.71;70.53;98947.38;1870551;76;22534;-61
2021/08/21 00:33:06;;;;;;;10.08;6.92;;;;;;;17.50;70.75;98946.88;1870387;76;22155;-60
2021/08/21 00:35:41;;;;;;;11.50;6.60;;;;;;;17.54;71.02;98948.52;1889923;76;22567;-59
2021/08/21 00:38:18;;;;;;;7.83;5.95;;;;;;;17.48;71.20;98943.42;1870431;76;22591;-59
2021/08/21 00:40:53;;;;;;;9.18;6.08;;;;;;;17.36;71.87;98943.63;1835010;77;22570;-61
2021/08/21 00:43:50;;;;;;;9.70;6.25;;;;;;;17.40;71.80;98934.84;1870411;76;22185;-58
2021/08/21 00:46:25;;;;;;;8.33;6.87;;;;;;;17.36;71.97;98935.80;1889891;76;22586;-65
2021/08/21 00:49:01;;;;;;;8.05;6.10;;;;;;;17.32;72.21;98930.20;1870681;76;22567;-59
2021/08/21 00:51:36;;;;;;;10.80;6.65;;;;;;;17.27;72.34;98939.41;1889898;76;20100;-61
2021/08/21 00:54:11;;;;;;;10.35;6.92;;;;;;;17.24;72.46;98936.00;1870693;76;22137;-60
2021/08/21 00:56:46;;;;;;;10.00;6.45;;;;;;;17.19;72.59;98931.30;1870686;76;22113;-60
2021/08/21 00:59:42;;;;;;;10.08;6.10;;;;;;;17.12;72.96;98933.13;1850790;77;22178;-56
2021/08/21 01:02:23;;;;;;;8.10;5.80;;;;;;;17.06;73.20;98928.88;1889931;76;22136;-58
2021/08/21 01:05:40;;;;;;;12.37;6.62;;;;;;;17.04;73.41;98933.26;1834917;77;22224;-63
2021/08/21 01:08:27;;;;;;;10.82;6.58;;;;;;;17.03;73.42;98926.33;1870626;76;22101;-63
2021/08/21 01:11:21;;;;;;;9.40;6.30;;;;;;;17.04;73.51;98917.61;1870604;76;22144;-61
2021/08/21 01:13:58;;;;;;;11.15;7.53;;;;;;;17.03;73.57;98926.78;1870552;76;22107;-64
2021/08/21 01:16:55;;;;;;;8.80;6.10;;;;;;;17.01;73.57;98916.37;1889876;76;22570;-57
2021/08/21 01:19:34;;;;;;;9.20;6.15;;;;;;;16.98;73.74;98917.72;1870627;76;22137;-59
2021/08/21 01:22:13;;;;;;;8.65;6.15;;;;;;;16.97;73.77;98921.23;1870616;76;22168;-60
2021/08/21 01:25:25;;;;;;;14.40;7.80;;;;;;;16.98;74.04;98919.48;1889963;76;22140;-62
2021/08/21 01:28:02;;;;;;;9.53;7.03;;;;;;;16.95;74.04;98923.44;1889888;76;22157;-60
2021/08/21 01:30:37;;;;;;;9.78;7.25;;;;;;;16.93;74.15;98922.15;1854748;76;27951;-64
2021/08/21 01:33:11;;;;;;;10.32;7.12;;;;;;;16.97;74.13;98921.23;1870655;76;22133;-60
2021/08/21 01:35:48;;;;;;;8.48;6.05;;;;;;;16.94;74.27;98917.34;1835103;77;22157;-59
2021/08/21 01:38:57;;;;;;;10.63;5.97;;;;;;;16.88;74.39;98917.45;1889829;76;22180;-63
2021/08/21 01:41:31;;;;;;;11.60;6.95;;;;;;;16.86;74.57;98923.97;1870718;76;22149;-61
2021/08/21 01:44:17;;;;;;;10.10;7.35;;;;;;;16.85;74.70;98921.41;1870650;76;22140;-59
2021/08/21 01:46:59;;;;;;;10.58;7.33;;;;;;;16.81;74.93;98924.94;1890090;76;22183;-59
2021/08/21 01:50:04;;;;;;;10.53;6.80;;;;;;;16.69;75.24;98918.14;1870682;76;22109;-66
2021/08/21 01:52:55;;;;;;;9.08;6.72;;;;;;;16.60;75.71;98924.33;1870680;76;22181;-61
2021/08/21 01:55:31;;;;;;;10.10;6.83;;;;;;;16.55;76.05;98926.14;1889985;76;22184;-62
2021/08/21 01:58:07;;;;;;;10.65;7.35;;;;;;;16.53;76.26;98927.89;1873871;76;27898;-60
2021/08/21 02:01:07;;;;;;;10.85;6.87;;;;;;;16.56;76.41;98920.48;1869903;76;22576;-59
2021/08/21 02:03:46;;;;;;;10.43;7.25;;;;;;;16.52;76.53;98926.19;1873841;76;28365;-57
2021/08/21 02:06:19;;;;;;;7.72;5.95;;;;;;;16.55;76.59;98913.11;1870719;76;22172;-64
2021/08/21 02:09:00;;;;;;;12.13;6.47;;;;;;;16.52;76.69;98920.98;1869909;76;22156;-61
2021/08/21 02:11:35;;;;;;;9.55;7.00;;;;;;;16.50;76.84;98920.98;1870641;76;22113;-65
2021/08/21 02:14:10;;;;;;;9.08;6.58;;;;;;;16.48;76.84;98919.28;1870593;76;22570;-62
2021/08/21 02:16:53;;;;;;;10.68;7.35;;;;;;;16.45;77.06;98922.80;1870649;76;22545;-61
2021/08/21 02:19:49;;;;;;;10.95;6.55;;;;;;;16.41;77.28;98920.24;1870534;76;22168;-61
2021/08/21 02:22:24;;;;;;;10.72;6.08;;;;;;;16.34;77.47;98925.14;1890029;76;22160;-62
2021/08/21 02:25:00;;;;;;;10.78;7.00;;;;;;;16.32;77.60;98924.30;1873883;76;38231;-59
2021/08/21 02:27:39;;;;;;;9.68;6.92;;;;;;;16.36;77.64;98924.23;1870640;76;22141;-65
2021/08/21 02:30:14;;;;;;;10.40;7.08;;;;;;;16.35;77.61;98929.45;1870637;76;22133;-62
2021/08/21 02:32:49;;;;;;;10.08;6.78;;;;;;;16.31;77.85;98926.45;1870547;76;22164;-56
2021/08/21 02:35:25;;;;;;;11.33;7.15;;;;;;;16.25;78.04;98926.09;1870397;76;22238;-60
2021/08/21 02:38:02;;;;;;;10.43;8.03;;;;;;;16.18;78.27;98927.05;1870802;76;22136;-59
2021/08/21 02:40:56;;;;;;;8.98;6.67;;;;;;;16.16;78.47;98925.79;1873823;76;28027;-63
2021/08/21 02:43:30;;;;;;;8.20;6.87;;;;;;;16.17;78.55;98921.44;1870654;76;22536;-63
2021/08/21 02:46:05;;;;;;;9.73;6.95;;;;;;;16.17;78.58;98920.98;1870627;76;22564;-60
2021/08/21 02:48:40;;;;;;;10.43;7.20;;;;;;;16.16;78.57;98924.48;1889921;76;22523;-63
2021/08/21 02:51:35;;;;;;;11.90;6.97;;;;;;;16.15;78.65;98924.05;1870516;76;22167;-58
2021/08/21 02:54:30;;;;;;;9.20;6.78;;;;;;;16.13;78.71;98919.73;1870586;76;22559;-62
2021/08/21 02:57:04;;;;;;;10.40;7.25;;;;;;;16.12;78.81;98924.09;1854783;76;27925;-62
2021/08/21 02:59:39;;;;;;;8.63;6.75;;;;;;;16.19;78.82;98921.84;1889938;76;22112;-57
2021/08/21 03:02:14;;;;;;;9.75;7.25;;;;;;;16.16;78.59;98927.53;1870620;76;22137;-60
2021/08/21 03:04:50;;;;;;;11.05;8.08;;;;;;;16.20;78.62;98913.58;1854679;76;27923;-59
2021/08/21 03:07:24;;;;;;;11.35;7.42;;;;;;;16.23;78.54;98917.02;1889934;76;22136;-58
2021/08/21 03:10:19;;;;;;;9.93;7.10;;;;;;;16.22;78.57;98913.98;1870592;76;22572;-60
2021/08/21 03:13:03;;;;;;;10.30;6.85;;;;;;;16.21;78.59;98915.32;1869737;76;22252;-64
2021/08/21 03:15:37;;;;;;;9.93;7.95;;;;;;;16.21;78.60;98914.02;1870777;76;22551;-59
2021/08/21 03:18:14;;;;;;;11.50;8.40;;;;;;;16.21;78.54;98914.88;1870423;76;22562;-62
2021/08/21 03:20:50;;;;;;;11.50;7.65;;;;;;;16.22;78.45;98920.48;1889911;76;22167;-62
2021/08/21 03:23:24;;;;;;;13.05;7.47;;;;;;;16.22;78.46;98920.48;1870660;76;22605;-59
2021/08/21 03:25:59;;;;;;;10.68;7.03;;;;;;;16.22;78.43;98921.80;1870681;76;22112;-64
2021/08/21 03:28:35;;;;;;;10.78;8.10;;;;;;;16.24;78.41;98923.94;1873887;76;27926;-61
2021/08/21 03:31:30;;;;;;;11.05;7.83;;;;;;;16.32;78.24;98933.41;1876510;75;22622;-61
2021/08/21 03:34:05;;;;;;;8.93;7.47;;;;;;;16.33;78.06;98928.61;1870670;76;22137;-62
2021/08/21 03:36:39;;;;;;;9.93;7.20;;;;;;;16.32;77.92;98935.56;1870690;76;22145;-56
2021/08/21 03:39:14;;;;;;;10.18;6.97;;;;;;;16.33;77.82;98935.12;1870658;76;22561;-63
2021/08/21 03:41:49;;;;;;;11.15;8.28;;;;;;;16.32;77.86;98930.80;1870665;76;22140;-60
2021/08/21 03:44:24;;;;;;;12.58;7.67;;;;;;;16.34;77.72;98934.25;1870667;76;22113;-62
2021/08/21 03:46:59;;;;;;;9.73;7.70;;;;;;;16.37;77.56;98933.77;1870762;76;22141;-64
2021/08/21 03:49:35;;;;;;;14.43;7.50;;;;;;;16.42;77.36;98932.41;1890025;76;22159;-60
2021/08/21 03:52:10;;;;;;;10.38;8.13;;;;;;;16.45;77.02;98932.36;1870684;76;22132;-62
2021/08/21 03:55:07;;;;;;;14.00;7.75;;;;;;;16.49;76.87;98939.27;1873860;76;28311;-66
2021/08/21 03:57:42;;;;;;;10.10;7.20;;;;;;;16.56;76.73;98933.06;1890027;76;20208;-58
2021/08/21 04:00:17;;;;;;;11.00;7.95;;;;;;;16.60;76.37;98938.66;1870606;76;22579;-60
2021/08/21 04:02:52;;;;;;;10.18;7.30;;;;;;;16.64;76.18;98949.47;1870653;76;22527;-61
2021/08/21 04:05:29;;;;;;;10.28;7.55;;;;;;;16.65;76.03;98942.06;1870579;76;22136;-61
2021/08/21 04:08:05;;;;;;;10.45;8.00;;;;;;;16.63;76.09;98939.91;1870698;76;22100;-63
2021/08/21 04:11:00;;;;;;;10.80;7.03;;;;;;;16.63;76.05;98947.73;1870618;76;22147;-61
2021/08/21 04:13:55;;;;;;;9.33;6.97;;;;;;;16.68;75.88;98950.28;1889851;76;22144;-59
2021/08/21 04:16:30;;;;;;;10.58;7.10;;;;;;;16.75;75.67;98948.46;1870606;76;22120;-58
2021/08/21 04:19:07;;;;;;;9.58;6.42;;;;;;;16.83;75.52;98952.70;1889913;76;22593;-62
2021/08/21 04:21:42;;;;;;;10.03;7.42;;;;;;;16.90;75.01;98943.05;1870608;76;22124;-64
2021/08/21 04:24:18;;;;;;;11.12;7.92;;;;;;;16.99;74.78;98957.23;1873888;76;27911;-63
2021/08/21 04:26:53;;;;;;;11.00;6.53;;;;;;;17.11;74.60;98954.45;1854681;76;27900;-63
2021/08/21 04:29:29;;;;;;;11.68;8.35;;;;;;;17.24;73.93;98959.47;1854632;76;27890;-60
2021/08/21 04:32:24;;;;;;;11.03;7.22;;;;;;;17.42;73.97;98954.39;1870666;76;22121;-61
2021/08/21 04:34:59;;;;;;;11.78;8.10;;;;;;;17.52;73.19;98955.50;1889940;76;22565;-62
2021/08/21 04:37:35;;;;;;;14.55;8.43;;;;;;;17.60;73.24;98955.38;1889938;76;22574;-64
2021/08/21 04:40:12;;;;;;;13.78;8.45;;;;;;;17.67;73.33;98963.52;1854727;76;28049;-63
2021/08/21 04:42:48;;;;;;;9.08;7.37;;;;;;;17.83;72.65;98957.59;1870526;76;22183;-65
2021/08/21 04:45:43;;;;;;;11.57;7.70;;;;;;;17.93;72.04;98956.53;1870503;76;22583;-58
2021/08/21 04:48:25;;;;;;;11.90;8.20;;;;;;;18.01;72.29;98961.61;1869714;76;22177;-56
2021/08/21 04:51:18;;;;;;;10.03;7.62;;;;;;;18.11;71.98;98964.45;1889864;76;22144;-64
2021/08/21 04:54:14;;;;;;;11.53;7.65;;;;;;;18.23;71.58;98960.75;1870664;76;22160;-61
2021/08/21 04:56:49;;;;;;;13.22;8.80;;;;;;;18.35;71.16;98968.34;1870600;76;22620;-64
2021/08/21 04:59:25;;;;;;;14.65;8.80;;;;;;;18.48;70.71;98962.88;1854659;76;28353;-63
2021/08/21 05:02:00;;;;;;;11.85;8.40;;;;;;;18.62;70.42;98967.34;1870733;76;22133;-65
2021/08/21 05:04:36;;;;;;;12.80;8.33;;;;;;;18.75;70.01;98970.55;1870397;76;22172;-61
2021/08/21 05:07:11;;;;;;;10.38;8.00;;;;;;;18.85;69.65;98966.44;1870697;76;22105;-62
2021/08/21 05:09:51;;;;;;;11.28;7.55;;;;;;;18.94;68.87;98969.28;1889906;76;22164;-64
2021/08/21 05:12:27;;;;;;;10.18;7.62;;;;;;;19.02;68.88;98970.41;1854600;76;27929;-60
2021/08/21 05:15:03;;;;;;;11.68;6.55;;;;;;;19.64;67.43;98969.76;1870577;76;22538;-59
2021/08/21 05:18:02;;;;;;;9.05;6.37;;;;;;;21.51;62.75;98976.60;1889822;76;22167;-58
2021/08/21 05:20:50;;;;;;;8.58;5.97;;;;;;;23.27;57.30;98975.86;1870746;76;22097;-62
2021/08/21 05:23:20;;;;;;;8.13;4.95;;;;;;;24.67;51.77;98979.45;1870660;76;22586;-64
2021/08/21 05:26:16;;;;;;;10.40;4.97;;;;;;;25.91;47.89;98989.77;1870388;76;20379;-66
2021/08/21 05:28:51;;;;;;;10.32;5.30;;;;;;;27.09;45.49;98992.30;1889927;76;22148;-67
2021/08/21 05:31:26;;;;;;;7.92;4.72;;;;;;;28.10;42.47;98990.43;1870660;76;22129;-66
2021/08/21 05:34:20;;;;;;;8.03;5.15;;;;;;;28.85;40.00;99007.05;1870492;76;22147;-67
2021/08/21 05:36:56;;;;;;;6.70;4.80;;;;;;;29.42;39.27;99005.56;1870593;76;22153;-63
2021/08/21 05:39:34;;;;;;;7.58;4.72;;;;;;;30.21;38.17;99010.47;1870632;76;22113;-63
2021/08/21 05:42:15;;;;;;;12.10;5.00;;;;;;;31.20;35.92;99008.38;1869766;76;22244;-66
2021/08/21 05:44:50;;;;;;;8.83;4.65;;;;;;;31.98;34.34;99012.38;1889950;76;22618;-67
2021/08/21 05:47:45;;;;;;;6.67;4.10;;;;;;;32.36;33.76;99019.23;1870664;76;22469;-61
2021/08/21 05:50:21;;;;;;;6.25;4.10;;;;;;;32.93;32.99;99023.64;1890004;76;20092;-65
2021/08/21 05:52:57;;;;;;;5.53;3.75;;;;;;;33.56;31.58;99027.04;1889981;76;22050;-44
2021/08/21 05:55:51;;;;;;;6.55;4.08;;;;;;;33.60;31.44;99032.02;1868192;76;22486;-49
2021/08/21 05:58:45;;;;;;;5.33;3.42;;;;;;;33.59;31.75;99033.50;1889885;76;22472;-57
2021/08/21 06:01:20;;;;;;;6.22;3.80;;;;;;;34.05;31.33;99041.17;1870670;76;22110;-47
2021/08/21 06:03:56;;;;;;;6.17;3.83;;;;;;;33.98;30.50;99037.81;1870593;76;22047;-45
2021/08/21 06:06:30;;;;;;;6.00;3.72;;;;;;;34.24;30.64;99040.46;1854931;76;27984;-46
2021/08/21 06:09:05;;;;;;;8.80;3.77;;;;;;;34.89;29.52;99041.09;1870690;76;22339;-50
2021/08/21 06:11:41;;;;;;;6.17;3.70;;;;;;;35.39;29.08;99045.59;1870526;76;20148;-44
2021/08/21 06:14:16;;;;;;;7.92;3.75;;;;;;;35.90;28.28;99040.97;1870643;76;22078;-43
2021/08/21 06:16:50;;;;;;;6.47;3.30;;;;;;;36.37;27.82;99049.13;1870646;76;22079;-52
2021/08/21 06:19:26;;;;;;;5.33;3.50;;;;;;;36.53;27.23;99043.13;1870433;76;22139;-41
2021/08/21 06:22:01;;;;;;;6.50;3.45;;;;;;;36.81;27.00;99042.18;1870717;76;22051;-47
2021/08/21 06:24:36;;;;;;;6.87;3.90;;;;;;;37.21;25.84;99038.31;1870675;76;22050;-45
2021/08/21 06:27:10;;;;;;;7.75;3.52;;;;;;;37.13;26.07;99048.48;1870668;76;22473;-49
2021/08/21 06:29:45;;;;;;;4.33;2.83;;;;;;;37.19;26.08;99047.53;1870646;76;22058;-53
2021/08/21 06:32:20;;;;;;;6.12;3.27;;;;;;;37.49;25.51;99058.45;1870472;76;22494;-48
2021/08/21 06:34:55;;;;;;;6.45;2.58;;;;;;;37.53;25.16;99057.16;1870663;76;22644;-47
2021/08/21 06:37:30;;;;;;;6.00;2.70;;;;;;;37.71;24.90;99056.69;1870689;76;22063;-47
2021/08/21 06:40:12;;;;;;;5.47;2.50;;;;;;;37.83;24.85;99062.66;1869745;76;22090;-47
2021/08/21 06:42:48;;;;;;;6.25;2.40;;;;;;;38.08;24.37;99066.44;1870208;76;22553;-45
2021/08/21 06:45:29;;;;;;;4.72;2.98;;;;;;;37.86;24.47;99066.89;1869782;76;22078;-48
2021/08/21 06:48:10;;;;;;;5.15;2.52;;;;;;;37.55;24.42;99069.98;1889963;76;22146;-62
2021/08/21 06:50:45;;;;;;;6.97;2.72;;;;;;;37.43;24.24;99061.27;1889883;76;22582;-61
2021/08/21 06:53:28;;;;;;;4.67;2.70;;;;;;;37.51;24.15;99059.19;1869800;76;22789;-61
2021/08/21 06:56:21;;;;;;;6.50;2.60;;;;;;;37.63;24.12;99062.01;1854811;76;27904;-62
2021/08/21 06:58:57;;;;;;;4.50;2.30;;;;;;;37.98;23.90;99069.73;1854753;76;27981;-60
2021/08/21 07:01:51;;;;;;;3.65;2.20;;;;;;;38.04;23.40;99064.20;1889780;76;22662;-59
2021/08/21 07:04:32;;;;;;;4.45;2.40;;;;;;;37.44;24.20;99063.45;1869870;76;22114;-62
2021/08/21 07:07:12;;;;;;;4.35;2.15;;;;;;;37.41;24.64;99059.22;1869771;76;22085;-64
2021/08/21 07:09:47;;;;;;;3.98;2.25;;;;;;;37.83;23.48;99064.02;1870597;76;22098;-63
2021/08/21 07:12:21;;;;;;;4.08;2.50;;;;;;;37.64;24.18;99059.64;1870613;76;22070;-63
2021/08/21 07:14:58;;;;;;;4.03;1.90;;;;;;;38.04;23.44;99067.77;1869904;76;22137;-64
2021/08/21 07:17:53;;;;;;;4.67;2.50;;;;;;;38.37;23.14;99067.50;1853243;76;27986;-62
2021/08/21 07:20:28;;;;;;;9.98;2.50;;;;;;;38.95;22.71;99067.34;1868993;76;22200;-63
2021/08/21 07:23:03;;;;;;;4.55;2.20;;;;;;;38.84;22.06;99071.66;1869048;76;22141;-62
2021/08/21 07:25:39;;;;;;;5.75;2.17;;;;;;;38.17;22.61;99070.06;1868844;76;22169;-63
2021/08/21 07:28:20;;;;;;;4.40;2.50;;;;;;;37.63;23.49;99064.70;1888668;76;22198;-63
2021/08/21 07:30:55;;;;;;;4.22;2.08;;;;;;;37.54;23.51;99060.22;1869560;76;22206;-63
2021/08/21 07:33:35;;;;;;;5.08;1.92;;;;;;;36.94;23.76;99061.53;1869842;76;22629;-62
2021/08/21 07:36:10;;;;;;;3.10;1.75;;;;;;;36.41;23.97;99072.02;1889988;76;22082;-64
2021/08/21 07:39:04;;;;;;;5.75;1.85;;;;;;;36.17;23.37;99059.91;1870556;76;22627;-64
2021/08/21 07:41:39;;;;;;;4.25;1.77;;;;;;;35.93;24.16;99064.88;1870653;76;22176;-63
2021/08/21 07:44:14;;;;;;;3.17;2.00;;;;;;;35.80;24.13;99071.85;1889899;76;22184;-62
2021/08/21 07:46:48;;;;;;;4.90;1.95;;;;;;;35.82;23.83;99080.16;1870613;76;22078;-64
2021/08/21 07:49:26;;;;;;;4.37;2.15;;;;;;;35.81;23.40;99070.38;1870610;76;22145;-64
2021/08/21 07:52:00;;;;;;;4.75;1.80;;;;;;;35.90;23.87;99071.38;1890027;76;22070;-63
2021/08/21 07:54:41;;;;;;;2.95;1.77;;;;;;;36.27;23.62;99071.98;1834378;77;22095;-63
2021/08/21 07:57:34;;;;;;;5.72;2.50;;;;;;;36.21;23.41;99084.67;1889862;76;22247;-63
2021/08/21 08:00:16;;;;;;;5.75;1.62;;;;;;;36.38;23.35;99075.84;1869768;76;22465;-62
2021/08/21 08:03:15;;;;;;;5.03;2.10;;;;;;;36.46;23.62;99075.98;1854881;76;28006;-62
2021/08/21 08:06:09;;;;;;;3.77;1.90;;;;;;;37.08;22.89;99082.23;1870515;76;22087;-62
2021/08/21 08:09:02;;;;;;;4.28;2.27;;;;;;;37.06;23.01;99076.99;1870554;76;22086;-63
2021/08/21 08:11:37;;;;;;;7.45;1.90;;;;;;;37.56;22.27;99080.61;1870621;76;22145;-62
2021/08/21 08:14:12;;;;;;;3.80;1.90;;;;;;;37.56;21.44;99071.70;1889925;76;22062;-62
2021/08/21 08:16:53;;;;;;;3.40;1.87;;;;;;;36.89;22.05;99078.63;1869758;76;22055;-62
2021/08/21 08:19:46;;;;;;;4.17;1.80;;;;;;;35.90;22.79;99072.73;1889958;76;22082;-64
2021/08/21 08:22:21;;;;;;;3.35;1.82;;;;;;;35.18;23.51;99072.53;1889919;76;22512;-66
2021/08/21 08:24:56;;;;;;;4.42;2.17;;;;;;;34.82;24.23;99073.95;1870608;76;22322;-63
2021/08/21 08:27:30;;;;;;;3.85;1.90;;;;;;;34.50;25.04;99070.39;1889922;76;22042;-63
2021/08/21 08:30:06;;;;;;;3.08;1.72;;;;;;;34.71;24.83;99065.02;1870624;76;22079;-62
2021/08/21 08:33:00;;;;;;;3.62;1.62;;;;;;;35.02;24.72;99066.32;1870619;76;22252;-63
2021/08/21 08:35:35;;;;;;;4.72;1.90;;;;;;;35.27;24.63;99061.48;1870717;76;22102;-63
2021/08/21 08:38:29;;;;;;;3.62;1.85;;;;;;;34.76;25.07;99057.91;1870486;76;22481;-64
2021/08/21 08:41:11;;;;;;;3.40;2.05;;;;;;;33.98;25.26;99057.39;1890062;76;22469;-62
2021/08/21 08:43:46;;;;;;;4.65;2.02;;;;;;;33.96;25.73;99051.31;1889904;76;22160;-63
2021/08/21 08:46:21;;;;;;;5.35;2.20;;;;;;;33.94;26.15;99047.45;1870921;76;22071;-63
2021/08/21 08:49:01;;;;;;;3.72;1.62;;;;;;;34.03;25.35;99055.17;1870628;76;22228;-62
2021/08/21 08:51:41;;;;;;;4.58;1.70;;;;;;;33.99;25.26;99050.20;1889890;76;22202;-63
2021/08/21 08:54:36;;;;;;;4.55;1.60;;;;;;;34.14;25.61;99055.63;1870682;76;22493;-62
2021/08/21 08:57:46;;;;;;;4.15;2.27;;;;;;;33.73;25.46;99045.22;1889857;76;22117;-63
2021/08/21 09:00:25;;;;;;;3.45;2.00;;;;;;;32.49;26.49;99045.87;1854793;76;28310;-65
2021/08/21 09:03:03;;;;;;;4.47;1.80;;;;;;;31.45;28.01;99044.80;1889922;76;22078;-63
2021/08/21 09:05:56;;;;;;;3.55;1.95;;;;;;;31.21;28.54;99038.06;1870574;76;22086;-64
2021/08/21 09:08:56;;;;;;;6.65;2.50;;;;;;;31.77;28.12;99036.19;1870632;76;22086;-63
2021/08/21 09:11:34;;;;;;;3.85;2.12;;;;;;;31.39;28.32;99047.05;1870464;76;22478;-64
2021/08/21 09:14:31;;;;;;;3.60;2.10;;;;;;;30.67;28.84;99045.05;1870489;76;22490;-63
2021/08/21 09:17:27;;;;;;;6.10;2.70;;;;;;;30.15;29.24;99032.20;1889851;76;22085;-61
2021/08/21 09:20:06;;;;;;;4.40;2.25;;;;;;;29.34;30.83;99032.30;1873836;76;27940;-62
2021/08/21 09:22:41;;;;;;;4.70;2.22;;;;;;;28.81;32.11;99018.80;1870648;76;22260;-64
2021/08/21 09:25:30;;;;;;;4.95;2.50;;;;;;;28.51;32.58;99027.73;1873891;76;27928;-63
2021/08/21 09:28:27;;;;;;;4.22;2.40;;;;;;;28.48;32.35;99025.75;1870682;76;22233;-63
2021/08/21 09:31:18;;;;;;;7.12;2.70;;;;;;;28.35;32.99;99013.20;1869801;76;22224;-62
2021/08/21 09:34:04;;;;;;;4.62;2.50;;;;;;;28.22;32.70;99011.40;1870713;76;22164;-63
2021/08/21 09:36:42;;;;;;;4.08;2.20;;;;;;;27.83;32.36;99016.80;1890072;76;22045;-63
2021/08/21 09:39:17;;;;;;;3.85;2.30;;;;;;;27.38;33.47;99024.67;1870641;76;22294;-63
2021/08/21 09:41:59;;;;;;;4.85;2.30;;;;;;;26.95;33.86;99023.08;1870796;76;22318;-62
2021/08/21 09:44:42;;;;;;;4.28;2.30;;;;;;;26.67;34.54;99017.59;1889926;76;22310;-63
2021/08/21 09:47:29;;;;;;;4.50;2.77;;;;;;;26.56;35.32;99017.70;1889957;76;22214;-62
2021/08/21 09:50:17;;;;;;;12.75;2.87;;;;;;;26.33;35.65;99008.75;1870483;76;22175;-63
2021/08/21 09:52:57;;;;;;;7.08;2.47;;;;;;;26.09;36.27;99017.05;1870760;76;20204;-63
2021/08/21 09:55:33;;;;;;;4.70;2.65;;;;;;;25.94;37.11;99016.04;1870737;76;22158;-63
2021/08/21 09:58:27;;;;;;;5.83;2.62;;;;;;;25.90;36.22;99018.47;1870552;76;22580;-63
2021/08/21 10:01:05;;;;;;;4.92;2.65;;;;;;;25.91;36.70;99018.00;1889879;76;22542;-63
2021/08/21 10:04:00;;;;;;;6.70;2.92;;;;;;;25.89;36.88;99015.89;1870576;76;20450;-65
2021/08/21 10:06:35;;;;;;;5.03;2.30;;;;;;;25.91;36.88;99015.36;1870570;76;22148;-63
2021/08/21 10:09:11;;;;;;;6.87;2.90;;;;;;;25.94;35.68;99019.16;1854820;76;27944;-61
2021/08/21 10:11:46;;;;;;;5.25;2.80;;;;;;;25.98;36.15;99018.08;1873935;76;27920;-61
2021/08/21 10:14:47;;;;;;;4.37;2.22;;;;;;;26.01;35.82;99011.78;1870385;75;22193;-62
2021/08/21 10:17:32;;;;;;;5.40;2.75;;;;;;;25.95;35.89;99013.80;1870606;76;22616;-61
2021/08/21 10:20:11;;;;;;;7.47;3.02;;;;;;;25.72;35.13;99008.33;1870561;76;22160;-62
2021/08/21 10:22:46;;;;;;;5.53;2.62;;;;;;;25.61;36.14;99011.11;1870630;76;22141;-64
2021/08/21 10:25:26;;;;;;;5.70;2.77;;;;;;;25.55;37.01;99003.03;1870654;76;22641;-62
2021/08/21 10:28:04;;;;;;;5.47;2.95;;;;;;;25.56;36.34;99009.54;1889892;76;22184;-62
2021/08/21 10:30:59;;;;;;;4.80;2.40;;;;;;;25.59;36.89;99005.89;1870577;76;22175;-61
2021/08/21 10:33:56;;;;;;;6.37;2.45;;;;;;;25.72;36.69;99001.72;1889926;76;22116;-62
2021/08/21 10:36:57;;;;;;;9.15;2.80;;;;;;;25.87;36.83;99001.89;1870365;75;22627;-63
2021/08/21 10:39:41;;;;;;;6.55;2.42;;;;;;;25.98;36.16;99004.86;1870489;76;22167;-62
2021/08/21 10:42:37;;;;;;;5.58;2.30;;;;;;;26.14;36.06;98995.18;1870212;76;22185;-62
2021/08/21 10:48:38;;;;;;;4.78;2.40;;;;;;;26.14;35.66;98993.86;1870632;76;22156;-61
2021/08/21 10:51:44;;;;;;;5.67;2.60;;;;;;;26.16;35.31;99000.40;1870484;76;22167;-63
2021/08/21 10:54:31;;;;;;;4.42;2.45;;;;;;;26.25;35.47;99005.19;1889908;76;22148;-62
2021/08/21 10:57:26;;;;;;;5.87;2.60;;;;;;;26.32;35.28;99001.77;1870642;76;22133;-64
2021/08/21 11:00:02;;;;;;;6.30;2.58;;;;;;;26.33;35.12;99005.66;1854774;76;28318;-63
2021/08/21 11:02:58;;;;;;;3.33;1.90;;;;;;;26.39;35.99;98997.86;1870611;76;22615;-62
2021/08/21 11:06:00;;;;;;;4.10;2.20;;;;;;;26.50;35.37;98994.16;1890001;76;22151;-63
2021/08/21 11:08:43;;;;;;;4.83;2.37;;;;;;;26.57;35.07;98990.28;1870766;76;22136;-61
2021/08/21 11:11:49;;;;;;;4.05;2.05;;;;;;;26.67;35.26;98981.38;1889855;76;22144;-64
2021/08/21 11:14:34;;;;;;;7.53;2.20;;;;;;;26.65;34.40;98992.98;1869936;76;22144;-63
2021/08/21 11:17:33;;;;;;;5.05;2.22;;;;;;;26.65;35.17;98985.89;1870677;76;22228;-62
2021/08/21 11:20:30;;;;;;;4.12;2.17;;;;;;;26.73;35.01;98978.85;1870623;76;22150;-62
2021/08/21 11:23:13;;;;;;;3.37;1.87;;;;;;;26.77;34.55;98984.38;1889997;76;22108;-61
2021/08/21 11:26:24;;;;;;;5.28;2.58;;;;;;;26.68;34.40;98982.22;1870678;76;22586;-61
2021/08/21 11:29:08;;;;;;;4.08;2.40;;;;;;;26.65;34.51;98989.02;1889940;76;22215;-62
2021/08/21 11:32:04;;;;;;;3.83;2.20;;;;;;;26.63;34.49;98995.70;1889912;76;22143;-62
2021/08/21 11:34:58;;;;;;;4.00;2.20;;;;;;;26.59;34.32;98992.38;1870663;76;22193;-63
2021/08/21 11:37:36;;;;;;;5.03;2.33;;;;;;;26.71;34.57;98979.40;1870616;76;22552;-62
2021/08/21 11:40:40;;;;;;;3.95;2.25;;;;;;;26.87;34.38;98974.98;1870586;76;22587;-64
2021/08/21 11:43:37;;;;;;;7.78;2.20;;;;;;;26.99;33.80;98984.86;1889961;76;22134;-62
2021/08/21 11:46:32;;;;;;;5.33;2.42;;;;;;;27.11;33.47;98991.28;1870368;76;22141;-61
2021/08/21 11:49:26;;;;;;;4.87;2.10;;;;;;;27.21;33.95;98995.63;1870446;76;22599;-62
2021/08/21 11:52:21;;;;;;;5.37;2.45;;;;;;;27.30;33.27;98987.16;1870636;76;22165;-62
2021/08/21 11:54:56;;;;;;;4.70;2.37;;;;;;;27.37;33.18;98988.48;1870642;76;22201;-63
2021/08/21 11:57:45;;;;;;;4.83;2.00;;;;;;;27.44;33.77;98981.89;1850804;77;22270;-63
2021/08/21 12:00:24;;;;;;;6.50;2.40;;;;;;;27.52;33.47;98984.58;1889914;76;22568;-64
2021/08/21 12:06:39;;;;;;;4.70;2.35;;;;;;;27.67;33.54;98973.07;1872075;75;22229;-62
2021/08/21 12:09:16;;;;;;;7.28;2.55;;;;;;;27.74;32.96;98975.75;1854876;76;27939;-64
2021/08/21 12:11:54;;;;;;;6.40;2.55;;;;;;;27.86;33.09;98985.66;1870467;76;22164;-62
2021/08/21 12:14:32;;;;;;;3.70;2.30;;;;;;;28.02;32.82;98978.11;1890038;76;22070;-63
2021/08/21 12:17:07;;;;;;;5.85;2.00;;;;;;;28.15;32.46;98979.06;1870409;76;22152;-62
2021/08/21 12:19:43;;;;;;;6.10;2.20;;;;;;;28.11;31.92;98977.53;1870758;76;22112;-62
2021/08/21 12:22:20;;;;;;;4.92;2.50;;;;;;;28.04;31.73;98973.57;1870374;76;22303;-62
2021/08/21 12:24:58;;;;;;;3.92;2.27;;;;;;;27.96;32.78;98974.48;1870632;76;22137;-63
2021/08/21 12:27:33;;;;;;;6.83;2.50;;;;;;;27.90;32.58;98973.91;1870648;76;22302;-64
2021/08/21 12:30:14;;;;;;;4.35;2.52;;;;;;;28.03;32.63;98973.17;1889924;76;22149;-63
2021/08/21 12:33:12;;;;;;;5.20;2.60;;;;;;;28.29;32.56;98971.12;1870379;76;22164;-62
2021/08/21 12:36:22;;;;;;;4.12;2.40;;;;;;;28.40;32.48;98966.94;1870507;76;22223;-63
2021/08/21 12:39:10;;;;;;;4.12;2.25;;;;;;;28.40;32.49;98980.22;1870623;76;22306;-62
2021/08/21 12:42:02;;;;;;;4.20;2.40;;;;;;;28.44;32.13;98980.38;1869764;76;22160;-63
2021/08/21 12:44:45;;;;;;;4.80;2.30;;;;;;;28.12;32.76;98969.48;1870430;76;22327;-62
2021/08/21 12:47:37;;;;;;;4.25;2.12;;;;;;;27.85;32.69;98982.61;1889878;76;22254;-63
2021/08/21 12:50:41;;;;;;;4.60;2.20;;;;;;;27.80;32.83;98964.77;1870343;76;22179;-63